createdAt,value
2019-05-15T00:00:42.082Z,74.6
2019-05-15T00:02:24.545Z,74.6
2019-05-15T00:04:05.683Z,74.83
2019-05-15T00:05:49.480Z,74.91
2019-05-15T00:07:30.726Z,75.02
2019-05-15T00:09:10.634Z,75.25
2019-05-15T00:10:50.476Z,75.26
2019-05-15T00:12:30.362Z,75.32
2019-05-15T00:14:10.581Z,75.29
2019-05-15T00:15:50.522Z,75.3
2019-05-15T00:17:30.352Z,75.12
2019-05-15T00:19:10.600Z,75.01
2019-05-15T00:22:38.772Z,75.36
2019-05-15T00:24:19.026Z,75.24
2019-05-15T00:26:00.324Z,75.41
2019-05-15T00:27:40.775Z,75.38
2019-05-15T00:29:21.620Z,75.38
2019-05-15T00:31:01.371Z,75.41
2019-05-15T00:32:40.750Z,75.61
2019-05-15T00:34:20.556Z,75.86
2019-05-15T00:36:00.658Z,75.81
2019-05-15T00:37:40.732Z,75.97
2019-05-15T00:39:20.765Z,75.89
2019-05-15T00:41:00.273Z,75.61
2019-05-15T00:44:19.824Z,75.63
2019-05-15T00:46:00.362Z,75.5
2019-05-15T00:47:41.377Z,75.62
2019-05-15T00:49:20.733Z,75.73
2019-05-15T00:51:00.746Z,75.79
2019-05-15T00:52:40.945Z,75.91
2019-05-15T00:54:21.055Z,75.95
2019-05-15T00:56:00.548Z,76.05
2019-05-15T00:57:41.067Z,76.15
2019-05-15T01:01:11.795Z,76.77
2019-05-15T01:02:51.262Z,76.47
2019-05-15T01:04:30.745Z,76.48
2019-05-15T01:06:10.197Z,76.41
2019-05-15T01:07:49.702Z,76.25
2019-05-15T01:09:31.091Z,76.22
2019-05-15T01:11:10.949Z,76.18
2019-05-15T01:12:50.375Z,76.33
2019-05-15T01:14:29.861Z,76.17
2019-05-15T01:16:11.068Z,76.13
2019-05-15T01:17:50.913Z,76.11
2019-05-15T01:19:30.531Z,76.05
2019-05-15T01:21:09.724Z,76.05
2019-05-15T01:22:50.273Z,76.09
2019-05-15T01:24:31.134Z,76.18
2019-05-15T01:26:11.652Z,76.04
2019-05-15T01:27:51.102Z,76.08
2019-05-15T01:29:45.077Z,76.27
2019-05-15T01:31:28.485Z,76.76
2019-05-15T01:33:10.152Z,77.16
2019-05-15T01:34:50.789Z,77.52
2019-05-15T01:36:30.648Z,77.55
2019-05-15T01:38:10.115Z,77.56
2019-05-15T01:39:50.394Z,77.5
2019-05-15T01:41:29.881Z,77.44
2019-05-15T01:45:03.036Z,77.76
2019-05-15T01:46:44.921Z,77.63
2019-05-15T01:48:28.251Z,77.89
2019-05-15T01:50:09.138Z,77.97
2019-05-15T01:51:58.582Z,78.33
2019-05-15T01:53:40.309Z,78.18
2019-05-15T01:55:19.839Z,78.33
2019-05-15T01:57:00.508Z,78.29
2019-05-15T01:58:40.045Z,78.3
2019-05-15T02:02:11.333Z,78.8
2019-05-15T02:03:51.025Z,78.55
2019-05-15T02:05:30.502Z,78.43
2019-05-15T02:07:10.057Z,78.4
2019-05-15T02:08:51.508Z,78.48
2019-05-15T02:10:30.963Z,78.5
2019-05-15T02:12:10.494Z,78.55
2019-05-15T02:13:49.967Z,78.47
2019-05-15T02:15:30.303Z,78.55
2019-05-15T02:18:58.183Z,78.56
2019-05-15T02:20:39.846Z,78.21
2019-05-15T02:22:20.637Z,78.32
2019-05-15T02:24:00.475Z,78.36
2019-05-15T02:25:40.634Z,78.3
2019-05-15T02:27:20.561Z,78.33
2019-05-15T02:29:03.328Z,78.43
2019-05-15T02:30:44.590Z,77.96
2019-05-15T02:32:31.656Z,78.15
2019-05-15T02:34:12.174Z,78.11
2019-05-15T02:35:52.184Z,78.21
2019-05-15T02:37:31.670Z,78.14
2019-05-15T02:39:11.120Z,78.18
2019-05-15T02:40:51.293Z,78.18
2019-05-15T02:42:31.058Z,78.18
2019-05-15T02:44:12.836Z,78.18
2019-05-15T02:45:52.951Z,78.28
2019-05-15T02:47:31.688Z,78.4
2019-05-15T02:49:11.141Z,78.68
2019-05-15T02:50:52.021Z,78.76
2019-05-15T02:52:31.460Z,78.98
2019-05-15T02:54:12.195Z,79.09
2019-05-15T02:56:03.569Z,79.49
2019-05-15T02:57:45.831Z,79.31
2019-05-15T02:59:30.624Z,79.3
2019-05-15T03:01:11.025Z,79.28
2019-05-15T03:02:51.671Z,79.24
2019-05-15T03:04:31.137Z,79.14
2019-05-15T03:06:11.660Z,79.02
2019-05-15T03:07:51.156Z,79.05
2019-05-15T03:09:31.580Z,79.08
2019-05-15T03:11:11.699Z,79.16
2019-05-15T03:12:51.243Z,79.21
2019-05-15T03:16:19.053Z,79.16
2019-05-15T03:18:01.419Z,78.83
2019-05-15T03:19:41.279Z,79.04
2019-05-15T03:21:20.805Z,78.72
2019-05-15T03:23:01.498Z,78.66
2019-05-15T03:24:41.607Z,78.67
2019-05-15T03:26:21.630Z,78.66
2019-05-15T03:28:01.382Z,78.79
2019-05-15T03:29:42.245Z,78.93
2019-05-15T03:32:00.472Z,79.24
2019-05-15T03:34:28.320Z,79.4
2019-05-15T03:36:32.531Z,79.19
2019-05-15T03:38:11.965Z,79.31
2019-05-15T03:39:53.633Z,79.27
2019-05-15T03:41:39.034Z,79.27
2019-05-15T03:43:20.328Z,79.27
2019-05-15T03:45:01.395Z,79.27
2019-05-15T03:46:41.716Z,79.36
2019-05-15T03:48:21.655Z,79.59
2019-05-15T03:50:01.931Z,79.62
2019-05-15T03:51:49.716Z,79.57
2019-05-15T03:55:12.690Z,80.17
2019-05-15T03:56:55.071Z,79.95
2019-05-15T03:58:39.705Z,79.75
2019-05-15T04:00:21.227Z,79.73
2019-05-15T04:02:01.701Z,79.89
2019-05-15T04:03:41.161Z,79.95
2019-05-15T04:05:21.604Z,80.05
2019-05-15T04:07:01.667Z,79.98
2019-05-15T04:08:41.229Z,79.9
2019-05-15T04:10:21.728Z,79.96
2019-05-15T04:12:01.774Z,79.9
2019-05-15T04:13:41.695Z,79.85
2019-05-15T04:15:21.174Z,80
2019-05-15T04:17:01.382Z,79.8
2019-05-15T04:18:41.446Z,79.65
2019-05-15T04:22:01.941Z,79.83
2019-05-15T04:23:41.456Z,79.08
2019-05-15T04:25:20.911Z,79.11
2019-05-15T04:27:05.594Z,79.04
2019-05-15T04:30:34.971Z,79.56
2019-05-15T04:32:19.961Z,78.94
2019-05-15T04:34:01.112Z,78.98
2019-05-15T04:35:41.978Z,79.21
2019-05-15T04:37:21.379Z,78.92
2019-05-15T04:39:00.886Z,78.98
2019-05-15T04:40:41.018Z,78.9
2019-05-15T04:42:22.055Z,78.88
2019-05-15T04:44:01.646Z,78.85
2019-05-15T04:45:49.590Z,79.18
2019-05-15T04:47:32.020Z,78.93
2019-05-15T04:49:11.482Z,78.88
2019-05-15T04:50:51.521Z,78.92
2019-05-15T04:54:11.714Z,79.27
2019-05-15T04:55:51.145Z,78.79
2019-05-15T04:57:35.300Z,78.53
2019-05-15T04:59:21.435Z,78.3
2019-05-15T05:01:01.779Z,78.01
2019-05-15T05:02:42.057Z,77.83
2019-05-15T05:04:21.484Z,77.8
2019-05-15T05:06:01.110Z,77.82
2019-05-15T05:07:41.196Z,77.78
2019-05-15T05:09:21.590Z,77.71
2019-05-15T05:11:01.072Z,77.56
2019-05-15T05:14:29.546Z,77.44
2019-05-15T05:16:10.803Z,76.89
2019-05-15T05:17:50.774Z,76.55
2019-05-15T05:19:30.279Z,76.22
2019-05-15T05:21:09.705Z,75.79
2019-05-15T05:22:50.067Z,75.44
2019-05-15T05:24:29.848Z,75.14
2019-05-15T05:26:12.629Z,74.83
2019-05-15T05:27:54.739Z,74.49
2019-05-15T05:29:36.035Z,74.12
2019-05-15T05:31:18.839Z,73.79
2019-05-15T05:32:59.644Z,73.35
2019-05-15T05:34:40.936Z,72.9
2019-05-15T05:36:20.398Z,72.65
2019-05-15T05:38:00.144Z,72.64
2019-05-15T05:41:22.852Z,72.08
2019-05-15T05:43:04.407Z,71.28
2019-05-15T05:44:45.837Z,70.66
2019-05-15T05:46:29.780Z,69.68
2019-05-15T05:48:10.631Z,72.64
2019-05-15T05:49:50.585Z,70.4
2019-05-15T05:51:30.109Z,69.61
2019-05-15T05:53:09.939Z,73.34
2019-05-15T05:54:50.792Z,70.98
2019-05-15T05:56:30.549Z,70.01
2019-05-15T05:58:09.967Z,69.24
2019-05-15T05:59:50.803Z,72.8
2019-05-15T06:01:30.277Z,70.31
2019-05-15T06:03:14.751Z,69.05
2019-05-15T06:04:59.889Z,72.32
2019-05-15T06:06:40.203Z,69.97
2019-05-15T06:08:24.039Z,72.73
2019-05-15T06:10:08.797Z,69.87
2019-05-15T06:11:50.733Z,72.6
2019-05-15T06:13:30.991Z,70
2019-05-15T06:15:10.853Z,72.93
2019-05-15T06:16:50.282Z,69.74
2019-05-15T06:18:30.021Z,72.62
2019-05-15T06:20:09.942Z,70.1
2019-05-15T06:22:00.883Z,68.99
2019-05-15T06:23:54.499Z,71.95
2019-05-15T06:25:50.284Z,69.34
2019-05-15T06:27:29.727Z,73.52
2019-05-15T06:29:10.827Z,71.26
2019-05-15T06:31:02.478Z,70.85
2019-05-15T06:32:41.967Z,70.51
2019-05-15T06:34:50.272Z,70.13
2019-05-15T06:36:30.767Z,69.58
2019-05-15T06:38:10.222Z,73.25
2019-05-15T06:41:33.467Z,69.65
2019-05-15T06:43:15.610Z,69.22
2019-05-15T06:44:58.859Z,72.72
2019-05-15T06:46:42.772Z,70.23
2019-05-15T06:48:30.004Z,68.58
2019-05-15T06:50:10.302Z,67.24
2019-05-15T06:51:50.492Z,70.62
2019-05-15T06:53:30.726Z,68.31
2019-05-15T06:55:11.069Z,71.88
2019-05-15T06:56:51.035Z,69.54
2019-05-15T06:58:30.756Z,72.8
2019-05-15T07:00:10.220Z,69.71
2019-05-15T07:01:49.922Z,72.43
2019-05-15T07:03:31.284Z,69.34
2019-05-15T07:05:10.664Z,71.76
2019-05-15T07:06:50.768Z,68.17
2019-05-15T07:08:29.904Z,70.74
2019-05-15T07:10:10.854Z,67.67
2019-05-15T07:11:50.315Z,70.57
2019-05-15T07:13:30.793Z,64.98
2019-05-15T07:15:10.297Z,66.14
2019-05-15T07:16:50.541Z,66.79
2019-05-15T07:18:30.178Z,66.92
2019-05-15T07:20:10.424Z,67.55
2019-05-15T07:21:50.505Z,67.62
2019-05-15T07:23:32.394Z,67.75
2019-05-15T07:25:14.922Z,67.1
2019-05-15T07:26:59.085Z,66.14
2019-05-15T07:28:39.725Z,66.32
2019-05-15T07:30:19.964Z,66.84
2019-05-15T07:32:00.266Z,65.92
2019-05-15T07:33:44.929Z,65.82
2019-05-15T07:35:28.750Z,66.17
2019-05-15T07:37:11.096Z,66.81
2019-05-15T07:38:51.686Z,65.57
2019-05-15T07:40:31.788Z,64.66
2019-05-15T07:42:11.167Z,64.81
2019-05-15T07:43:51.248Z,64.01
2019-05-15T07:45:35.033Z,63.98
2019-05-15T07:47:21.201Z,63.15
2019-05-15T07:49:00.695Z,62.45
2019-05-15T07:50:40.708Z,62.21
2019-05-15T07:52:21.217Z,62.27
2019-05-15T07:54:04.192Z,61.82
2019-05-15T07:55:45.678Z,62.05
2019-05-15T07:57:31.519Z,62.31
2019-05-15T07:59:11.114Z,61.7
2019-05-15T08:00:51.183Z,60.42
2019-05-15T08:02:30.726Z,60.74
2019-05-15T08:04:30.244Z,60.74
2019-05-15T08:06:24.094Z,60.57
2019-05-15T08:08:08.786Z,58.85
2019-05-15T08:09:50.442Z,58.63
2019-05-15T08:11:29.748Z,57.86
2019-05-15T08:13:10.733Z,56.03
2019-05-15T08:14:52.717Z,55.61
2019-05-15T08:16:34.568Z,55.29
2019-05-15T08:18:17.961Z,55.86
2019-05-15T08:20:00.020Z,54.82
2019-05-15T08:21:40.382Z,54.49
2019-05-15T08:23:21.017Z,51.95
2019-05-15T08:25:00.990Z,50.41
2019-05-15T08:26:48.629Z,48.95
2019-05-15T08:28:30.429Z,46.68
2019-05-15T08:30:10.639Z,46.54
2019-05-15T08:31:50.276Z,47.67
2019-05-15T08:33:29.239Z,48.31
2019-05-15T08:35:09.876Z,49.11
2019-05-15T08:36:50.755Z,48.53
2019-05-15T08:38:30.764Z,49.13
2019-05-15T08:40:10.428Z,49.75
2019-05-15T08:41:50.227Z,50.05
2019-05-15T08:43:32.616Z,49.82
2019-05-15T08:45:14.591Z,50.26
2019-05-15T08:46:58.770Z,49.06
2019-05-15T08:48:40.091Z,48.99
2019-05-15T08:50:20.107Z,49.53
2019-05-15T08:52:00.113Z,48.79
2019-05-15T08:53:39.852Z,48.45
2019-05-15T08:55:23.095Z,47.05
2019-05-15T08:57:04.583Z,47.3
2019-05-15T08:58:48.453Z,47.5
2019-05-15T09:00:30.510Z,47.76
2019-05-15T09:02:10.074Z,48.06
2019-05-15T09:03:50.702Z,47.74
2019-05-15T09:05:30.244Z,48.34
2019-05-15T09:07:11.030Z,46.87
2019-05-15T09:08:50.840Z,45.99
2019-05-15T09:10:30.472Z,46.16
2019-05-15T09:12:10.201Z,45.02
2019-05-15T09:13:58.879Z,44
2019-05-15T09:15:41.383Z,43.53
2019-05-15T09:17:20.970Z,42.97
2019-05-15T09:19:01.075Z,41.83
2019-05-15T09:20:40.739Z,40.85
2019-05-15T09:22:20.623Z,41.02
2019-05-15T09:24:00.735Z,40.22
2019-05-15T09:25:40.816Z,40.73
2019-05-15T09:29:00.397Z,39.94
2019-05-15T09:30:40.244Z,39.67
2019-05-15T09:32:21.430Z,39.42
2019-05-15T09:34:00.898Z,39.1
2019-05-15T09:35:41.056Z,37.94
2019-05-15T09:37:20.534Z,37.54
2019-05-15T09:39:00.405Z,37.16
2019-05-15T09:40:50.131Z,36.52
2019-05-15T09:42:30.387Z,35.76
2019-05-15T09:44:09.858Z,34.58
2019-05-15T09:45:51.231Z,36.53
2019-05-15T09:47:31.478Z,37.05
2019-05-15T09:49:11.093Z,35.71
2019-05-15T09:50:51.193Z,34.92
2019-05-15T09:52:31.925Z,35.44
2019-05-15T09:54:11.458Z,35.63
2019-05-15T09:55:51.540Z,35.49
2019-05-15T09:57:31.899Z,35.66
2019-05-15T09:59:11.485Z,33.94
2019-05-15T10:00:53.900Z,33.44
2019-05-15T10:02:33.290Z,33.28
2019-05-15T10:04:15.811Z,33.15
2019-05-15T10:05:57.125Z,34.01
2019-05-15T10:07:36.510Z,35.21
2019-05-15T10:09:20.822Z,33.61
2019-05-15T10:11:00.470Z,32.68
2019-05-15T10:12:40.590Z,33.14
2019-05-15T10:16:03.610Z,33.33
2019-05-15T10:17:44.848Z,32.67
2019-05-15T10:19:30.870Z,32.15
2019-05-15T10:21:10.759Z,32.02
2019-05-15T10:22:50.262Z,32.22
2019-05-15T10:24:35.352Z,33.01
2019-05-15T10:26:16.211Z,30.55
2019-05-15T10:27:59.686Z,30.13
2019-05-15T10:29:40.668Z,30.38
2019-05-15T10:31:21.322Z,31.9
2019-05-15T10:33:00.881Z,31.57
2019-05-15T10:34:40.373Z,31.41
2019-05-15T10:36:20.724Z,31.58
2019-05-15T10:38:00.997Z,32.31
2019-05-15T10:39:40.594Z,32.13
2019-05-15T10:41:20.660Z,31.65
2019-05-15T10:43:01.195Z,30.42
2019-05-15T10:44:41.017Z,29.84
2019-05-15T10:46:20.845Z,30.64
2019-05-15T10:48:00.505Z,31.09
2019-05-15T10:49:40.785Z,31.09
2019-05-15T10:53:00.737Z,30.78
2019-05-15T10:54:40.224Z,30.78
2019-05-15T10:56:20.451Z,30.49
2019-05-15T10:58:00.071Z,30.03
2019-05-15T10:59:39.886Z,29.61
2019-05-15T11:01:21.006Z,30.29
2019-05-15T11:03:00.379Z,29.71
2019-05-15T11:04:40.386Z,29.48
2019-05-15T11:06:20.211Z,30.13
2019-05-15T11:08:00.037Z,30.69
2019-05-15T11:09:42.265Z,31.34
2019-05-15T11:11:22.006Z,31.22
2019-05-15T11:13:01.691Z,30.46
2019-05-15T11:14:41.168Z,30.03
2019-05-15T11:18:02.843Z,30.96
2019-05-15T11:19:42.661Z,31.07
2019-05-15T11:21:26.223Z,30.79
2019-05-15T11:23:07.954Z,30.4
2019-05-15T11:26:35.812Z,28.9
2019-05-15T11:28:17.127Z,29.31
2019-05-15T11:29:58.486Z,28.62
2019-05-15T11:31:40.948Z,28.07
2019-05-15T11:33:21.024Z,26.97
2019-05-15T11:35:04.029Z,25.88
2019-05-15T11:36:43.703Z,25.22
2019-05-15T11:38:28.685Z,26.36
2019-05-15T11:40:11.551Z,26.29
2019-05-15T11:41:51.393Z,23.6
2019-05-15T11:43:31.009Z,23.91
2019-05-15T11:45:10.434Z,24.94
2019-05-15T11:46:51.526Z,24.58
2019-05-15T11:48:31.800Z,23.9
2019-05-15T11:50:11.456Z,22.76
2019-05-15T11:51:51.163Z,22.9
2019-05-15T11:53:30.612Z,23.24
2019-05-15T11:55:10.340Z,23.53
2019-05-15T11:56:50.779Z,23.39
2019-05-15T11:58:30.162Z,23.27
2019-05-15T12:00:25.647Z,23.32
2019-05-15T12:02:18.786Z,24.12
2019-05-15T12:04:00.417Z,25.37
2019-05-15T12:05:40.483Z,25.21
2019-05-15T12:07:19.471Z,26.32
2019-05-15T12:09:01.124Z,24.97
2019-05-15T12:10:40.790Z,23.98
2019-05-15T12:12:20.279Z,23.88
2019-05-15T12:13:59.888Z,24.29
2019-05-15T12:15:40.700Z,24.15
2019-05-15T12:17:20.721Z,24.95
2019-05-15T12:19:15.199Z,25.37
2019-05-15T12:20:58.794Z,24.75
2019-05-15T12:24:41.134Z,25.41
2019-05-15T12:26:20.691Z,25.06
2019-05-15T12:28:01.453Z,25.25
2019-05-15T12:29:41.732Z,25.35
2019-05-15T12:31:26.295Z,25.51
2019-05-15T12:33:05.832Z,24.56
2019-05-15T12:34:49.427Z,24.5
